sensor_id;sensor_type;location;lat;lon;timestamp;pressure;altitude;pressure_sealevel;temperature;humidity
46778;BME280;32536;47.128;8.746;2023-04-07T00:01:51;91615.91;;;10.71;35.42
46778;BME280;32536;47.128;8.746;2023-04-07T00:04:18;91616.69;;;10.72;35.65
46778;BME280;32536;47.128;8.746;2023-04-07T00:06:44;91608.72;;;10.68;35.72
46778;BME280;32536;47.128;8.746;2023-04-07T00:09:11;91599.94;;;10.64;35.37
46778;BME280;32536;47.128;8.746;2023-04-07T00:11:38;91610.38;;;10.59;35.69
46778;BME280;32536;47.128;8.746;2023-04-07T00:14:04;91602.44;;;10.51;35.57
46778;BME280;32536;47.128;8.746;2023-04-07T00:16:31;91600.56;;;10.48;35.62
46778;BME280;32536;47.128;8.746;2023-04-07T00:18:58;91597.94;;;10.45;35.56
46778;BME280;32536;47.128;8.746;2023-04-07T00:21:24;91599.50;;;10.42;35.75
46778;BME280;32536;47.128;8.746;2023-04-07T00:23:51;91596.06;;;10.41;35.37
46778;BME280;32536;47.128;8.746;2023-04-07T00:26:18;91595.28;;;10.41;35.77
46778;BME280;32536;47.128;8.746;2023-04-07T00:28:45;91590.34;;;10.39;35.90
46778;BME280;32536;47.128;8.746;2023-04-07T00:31:12;91583.88;;;10.37;35.95
46778;BME280;32536;47.128;8.746;2023-04-07T00:33:39;91580.47;;;10.33;35.87
46778;BME280;32536;47.128;8.746;2023-04-07T00:36:06;91580.16;;;10.27;35.86
46778;BME280;32536;47.128;8.746;2023-04-07T00:38:32;91572.59;;;10.22;35.89
46778;BME280;32536;47.128;8.746;2023-04-07T00:40:59;91576.84;;;10.19;36.04
46778;BME280;32536;47.128;8.746;2023-04-07T00:43:26;91578.41;;;10.17;36.06
46778;BME280;32536;47.128;8.746;2023-04-07T00:45:53;91565.41;;;10.15;35.84
46778;BME280;32536;47.128;8.746;2023-04-07T00:48:20;91569.22;;;10.14;35.57
46778;BME280;32536;47.128;8.746;2023-04-07T00:50:47;91565.84;;;10.10;36.00
46778;BME280;32536;47.128;8.746;2023-04-07T00:53:15;91566.66;;;10.07;36.30
46778;BME280;32536;47.128;8.746;2023-04-07T00:55:42;91558.69;;;10.03;36.01
46778;BME280;32536;47.128;8.746;2023-04-07T00:58:08;91565.59;;;10.01;36.23
46778;BME280;32536;47.128;8.746;2023-04-07T01:00:41;91553.75;;;9.98;36.42
46778;BME280;32536;47.128;8.746;2023-04-07T01:03:33;91550.75;;;9.96;36.30
46778;BME280;32536;47.128;8.746;2023-04-07T01:06:05;91553.75;;;9.98;35.98
46778;BME280;32536;47.128;8.746;2023-04-07T01:08:53;91553.47;;;9.92;37.31
46778;BME280;32536;47.128;8.746;2023-04-07T01:11:34;91542.03;;;9.88;36.15
46778;BME280;32536;47.128;8.746;2023-04-07T01:14:05;91527.50;;;9.89;36.46
46778;BME280;32536;47.128;8.746;2023-04-07T01:16:38;91521.03;;;9.87;36.19
46778;BME280;32536;47.128;8.746;2023-04-07T01:19:33;91520.63;;;9.88;37.02
46778;BME280;32536;47.128;8.746;2023-04-07T01:22:07;91521.75;;;9.91;36.22
46778;BME280;32536;47.128;8.746;2023-04-07T01:30:31;91505.66;;;9.94;36.49
46778;BME280;32536;47.128;8.746;2023-04-07T01:32:59;91497.63;;;9.94;36.22
46778;BME280;32536;47.128;8.746;2023-04-07T01:35:29;91500.69;;;9.93;36.46
46778;BME280;32536;47.128;8.746;2023-04-07T01:37:58;91508.38;;;9.91;36.93
46778;BME280;32536;47.128;8.746;2023-04-07T01:40:26;91506.19;;;9.82;37.21
46778;BME280;32536;47.128;8.746;2023-04-07T01:42:55;91493.69;;;9.75;36.85
46778;BME280;32536;47.128;8.746;2023-04-07T01:45:23;91495.28;;;9.69;36.92
46778;BME280;32536;47.128;8.746;2023-04-07T01:47:53;91494.19;;;9.67;36.61
46778;BME280;32536;47.128;8.746;2023-04-07T01:50:20;91496.50;;;9.65;36.68
46778;BME280;32536;47.128;8.746;2023-04-07T01:52:48;91487.69;;;9.64;36.88
46778;BME280;32536;47.128;8.746;2023-04-07T01:55:15;91488.88;;;9.63;36.73
46778;BME280;32536;47.128;8.746;2023-04-07T01:57:41;91477.41;;;9.63;36.78
46778;BME280;32536;47.128;8.746;2023-04-07T02:00:08;91483.91;;;9.61;36.71
46778;BME280;32536;47.128;8.746;2023-04-07T02:02:40;91486.94;;;9.64;36.66
46778;BME280;32536;47.128;8.746;2023-04-07T02:05:13;91485.38;;;9.66;37.16
46778;BME280;32536;47.128;8.746;2023-04-07T02:08:21;91482.28;;;9.68;36.90
46778;BME280;32536;47.128;8.746;2023-04-07T02:10:42;91490.69;;;9.70;36.86
46778;BME280;32536;47.128;8.746;2023-04-07T02:13:15;91494.09;;;9.70;37.21
46778;BME280;32536;47.128;8.746;2023-04-07T02:15:45;91483.03;;;9.72;37.00
46778;BME280;32536;47.128;8.746;2023-04-07T02:18:14;91482.25;;;9.71;36.88
46778;BME280;32536;47.128;8.746;2023-04-07T02:20:42;91479.25;;;9.69;36.78
46778;BME280;32536;47.128;8.746;2023-04-07T02:23:11;91480.00;;;9.70;37.00
46778;BME280;32536;47.128;8.746;2023-04-07T02:25:38;91472.38;;;9.68;37.06
46778;BME280;32536;47.128;8.746;2023-04-07T02:28:05;91473.53;;;9.67;36.87
46778;BME280;32536;47.128;8.746;2023-04-07T02:30:32;91468.59;;;9.66;37.00
46778;BME280;32536;47.128;8.746;2023-04-07T02:33:00;91467.47;;;9.63;36.78
46778;BME280;32536;47.128;8.746;2023-04-07T02:35:27;91465.56;;;9.64;36.60
46778;BME280;32536;47.128;8.746;2023-04-07T02:37:53;91460.59;;;9.62;36.74
46778;BME280;32536;47.128;8.746;2023-04-07T02:40:20;91462.97;;;9.56;37.01
46778;BME280;32536;47.128;8.746;2023-04-07T02:42:47;91453.41;;;9.55;36.88
46778;BME280;32536;47.128;8.746;2023-04-07T02:45:13;91449.63;;;9.53;37.03
46778;BME280;32536;47.128;8.746;2023-04-07T02:47:40;91454.63;;;9.51;37.30
46778;BME280;32536;47.128;8.746;2023-04-07T02:50:07;91445.84;;;9.50;37.35
46778;BME280;32536;47.128;8.746;2023-04-07T02:52:34;91445.44;;;9.52;37.43
46778;BME280;32536;47.128;8.746;2023-04-07T02:55:01;91449.63;;;9.53;37.50
46778;BME280;32536;47.128;8.746;2023-04-07T02:57:28;91433.19;;;9.54;37.65
46778;BME280;32536;47.128;8.746;2023-04-07T02:59:54;91433.13;;;9.58;37.32
46778;BME280;32536;47.128;8.746;2023-04-07T03:02:23;91422.06;;;9.59;36.95
46778;BME280;32536;47.128;8.746;2023-04-07T03:04:50;91402.94;;;9.61;37.25
46778;BME280;32536;47.128;8.746;2023-04-07T03:07:17;91408.22;;;9.65;37.23
46778;BME280;32536;47.128;8.746;2023-04-07T03:09:44;91413.53;;;9.68;36.92
46778;BME280;32536;47.128;8.746;2023-04-07T03:12:11;91406.66;;;9.67;37.32
46778;BME280;32536;47.128;8.746;2023-04-07T03:14:38;91410.50;;;9.66;37.25
46778;BME280;32536;47.128;8.746;2023-04-07T03:17:04;91407.41;;;9.68;37.07
46778;BME280;32536;47.128;8.746;2023-04-07T03:19:31;91399.06;;;9.66;36.96
46778;BME280;32536;47.128;8.746;2023-04-07T03:21:58;91391.81;;;9.63;37.26
46778;BME280;32536;47.128;8.746;2023-04-07T03:24:25;91391.13;;;9.58;37.28
46778;BME280;32536;47.128;8.746;2023-04-07T03:26:51;91388.09;;;9.56;37.27
46778;BME280;32536;47.128;8.746;2023-04-07T03:29:18;91390.81;;;9.53;37.86
46778;BME280;32536;47.128;8.746;2023-04-07T03:31:45;91387.06;;;9.47;37.24
46778;BME280;32536;47.128;8.746;2023-04-07T03:34:12;91387.53;;;9.41;37.24
46778;BME280;32536;47.128;8.746;2023-04-07T03:36:38;91384.09;;;9.41;37.35
46778;BME280;32536;47.128;8.746;2023-04-07T03:39:05;91387.22;;;9.36;37.44
46778;BME280;32536;47.128;8.746;2023-04-07T03:41:32;91390.28;;;9.34;37.40
46778;BME280;32536;47.128;8.746;2023-04-07T03:43:58;91387.25;;;9.32;37.14
46778;BME280;32536;47.128;8.746;2023-04-07T03:46:25;91373.94;;;9.28;37.13
46778;BME280;32536;47.128;8.746;2023-04-07T03:48:52;91371.72;;;9.23;37.05
46778;BME280;32536;47.128;8.746;2023-04-07T03:51:19;91377.53;;;9.18;37.51
46778;BME280;32536;47.128;8.746;2023-04-07T03:53:46;91376.75;;;9.18;37.78
46778;BME280;32536;47.128;8.746;2023-04-07T03:56:13;91374.47;;;9.16;37.62
46778;BME280;32536;47.128;8.746;2023-04-07T03:58:39;91371.81;;;9.16;37.58
46778;BME280;32536;47.128;8.746;2023-04-07T04:01:07;91374.06;;;9.18;37.66
46778;BME280;32536;47.128;8.746;2023-04-07T04:03:34;91379.41;;;9.18;37.52
46778;BME280;32536;47.128;8.746;2023-04-07T04:06:01;91369.50;;;9.18;37.63
46778;BME280;32536;47.128;8.746;2023-04-07T04:08:28;91367.56;;;9.19;37.49
46778;BME280;32536;47.128;8.746;2023-04-07T04:10:55;91371.06;;;9.16;38.11
46778;BME280;32536;47.128;8.746;2023-04-07T04:13:22;91363.44;;;9.14;37.67
46778;BME280;32536;47.128;8.746;2023-04-07T04:15:48;91366.50;;;9.12;37.97
46778;BME280;32536;47.128;8.746;2023-04-07T04:18:15;91360.00;;;9.13;37.84
46778;BME280;32536;47.128;8.746;2023-04-07T04:20:42;91360.00;;;9.13;37.55
46778;BME280;32536;47.128;8.746;2023-04-07T04:23:08;91354.25;;;9.15;37.65
46778;BME280;32536;47.128;8.746;2023-04-07T04:25:35;91359.97;;;9.17;37.32
46778;BME280;32536;47.128;8.746;2023-04-07T04:28:04;91360.28;;;9.23;37.45
46778;BME280;32536;47.128;8.746;2023-04-07T04:30:31;91361.34;;;9.29;37.59
46778;BME280;32536;47.128;8.746;2023-04-07T04:32:58;91347.88;;;9.36;37.82
46778;BME280;32536;47.128;8.746;2023-04-07T04:35:24;91354.34;;;9.39;37.84
46778;BME280;32536;47.128;8.746;2023-04-07T04:37:51;91344.81;;;9.38;37.92
46778;BME280;32536;47.128;8.746;2023-04-07T04:40:19;91342.53;;;9.36;37.89
46778;BME280;32536;47.128;8.746;2023-04-07T04:42:46;91351.31;;;9.37;37.88
46778;BME280;32536;47.128;8.746;2023-04-07T04:45:13;91347.75;;;9.43;38.14
46778;BME280;32536;47.128;8.746;2023-04-07T04:47:39;91354.19;;;9.50;37.87
46778;BME280;32536;47.128;8.746;2023-04-07T04:50:08;91350.28;;;9.54;38.05
46778;BME280;32536;47.128;8.746;2023-04-07T04:52:35;91350.22;;;9.58;38.09
46778;BME280;32536;47.128;8.746;2023-04-07T04:55:04;91350.53;;;9.64;37.90
46778;BME280;32536;47.128;8.746;2023-04-07T04:57:31;91354.75;;;9.65;37.72
46778;BME280;32536;47.128;8.746;2023-04-07T05:00:01;91349.38;;;9.65;37.90
46778;BME280;32536;47.128;8.746;2023-04-07T05:02:29;91349.44;;;9.61;37.85
46778;BME280;32536;47.128;8.746;2023-04-07T05:04:55;91351.00;;;9.58;38.07
46778;BME280;32536;47.128;8.746;2023-04-07T05:07:22;91342.25;;;9.54;37.96
46778;BME280;32536;47.128;8.746;2023-04-07T05:09:49;91345.00;;;9.51;38.31
46778;BME280;32536;47.128;8.746;2023-04-07T05:12:15;91335.47;;;9.50;38.33
46778;BME280;32536;47.128;8.746;2023-04-07T05:14:42;91341.22;;;9.48;38.32
46778;BME280;32536;47.128;8.746;2023-04-07T05:17:09;91336.22;;;9.50;38.03
46778;BME280;32536;47.128;8.746;2023-04-07T05:19:36;91341.97;;;9.49;38.36
46778;BME280;32536;47.128;8.746;2023-04-07T05:22:03;91338.94;;;9.47;38.26
46778;BME280;32536;47.128;8.746;2023-04-07T05:24:29;91333.59;;;9.47;38.14
46778;BME280;32536;47.128;8.746;2023-04-07T05:26:56;91335.53;;;9.46;38.06
46778;BME280;32536;47.128;8.746;2023-04-07T05:29:23;91339.31;;;9.49;38.12
46778;BME280;32536;47.128;8.746;2023-04-07T05:31:49;91338.16;;;9.50;38.24
46778;BME280;32536;47.128;8.746;2023-04-07T05:34:16;91334.69;;;9.49;38.25
46778;BME280;32536;47.128;8.746;2023-04-07T05:36:43;91340.81;;;9.50;37.69
46778;BME280;32536;47.128;8.746;2023-04-07T05:39:09;91334.34;;;9.47;38.06
46778;BME280;32536;47.128;8.746;2023-04-07T05:41:36;91332.09;;;9.45;38.13
46778;BME280;32536;47.128;8.746;2023-04-07T05:44:03;91329.03;;;9.43;38.16
46778;BME280;32536;47.128;8.746;2023-04-07T05:46:31;91339.34;;;9.45;38.07
46778;BME280;32536;47.128;8.746;2023-04-07T05:48:57;91329.00;;;9.47;38.17
46778;BME280;32536;47.128;8.746;2023-04-07T05:51:24;91327.47;;;9.50;37.99
46778;BME280;32536;47.128;8.746;2023-04-07T05:53:51;91328.94;;;9.51;38.14
46778;BME280;32536;47.128;8.746;2023-04-07T05:56:18;91327.47;;;9.50;37.86
46778;BME280;32536;47.128;8.746;2023-04-07T05:58:46;91322.91;;;9.47;38.37
46778;BME280;32536;47.128;8.746;2023-04-07T06:01:12;91313.72;;;9.48;38.59
46778;BME280;32536;47.128;8.746;2023-04-07T06:03:39;91309.91;;;9.49;38.31
46778;BME280;32536;47.128;8.746;2023-04-07T06:06:06;91310.63;;;9.49;38.24
46778;BME280;32536;47.128;8.746;2023-04-07T06:08:34;91310.63;;;9.49;38.10
46778;BME280;32536;47.128;8.746;2023-04-07T06:11:00;91302.25;;;9.47;38.33
46778;BME280;32536;47.128;8.746;2023-04-07T06:13:27;91308.38;;;9.48;38.51
46778;BME280;32536;47.128;8.746;2023-04-07T06:15:54;91308.38;;;9.48;38.85
46778;BME280;32536;47.128;8.746;2023-04-07T06:18:22;91300.34;;;9.48;38.76
46778;BME280;32536;47.128;8.746;2023-04-07T06:20:48;91308.78;;;9.46;38.98
46778;BME280;32536;47.128;8.746;2023-04-07T06:23:15;91305.69;;;9.48;38.78
46778;BME280;32536;47.128;8.746;2023-04-07T06:25:42;91302.25;;;9.47;38.44
46778;BME280;32536;47.128;8.746;2023-04-07T06:28:10;91307.22;;;9.49;38.31
46778;BME280;32536;47.128;8.746;2023-04-07T06:30:37;91301.47;;;9.50;38.78
46778;BME280;32536;47.128;8.746;2023-04-07T06:33:04;91305.28;;;9.49;38.64
46778;BME280;32536;47.128;8.746;2023-04-07T06:35:31;91299.19;;;9.49;38.62
46778;BME280;32536;47.128;8.746;2023-04-07T06:37:58;91301.09;;;9.48;38.49
46778;BME280;32536;47.128;8.746;2023-04-07T06:40:25;91298.91;;;9.43;38.72
46778;BME280;32536;47.128;8.746;2023-04-07T06:42:51;91302.03;;;9.38;39.11
46778;BME280;32536;47.128;8.746;2023-04-07T06:45:19;91301.03;;;9.28;39.45
46778;BME280;32536;47.128;8.746;2023-04-07T06:47:46;91299.56;;;9.23;39.08
46778;BME280;32536;47.128;8.746;2023-04-07T06:50:12;91296.88;;;9.23;39.14
46778;BME280;32536;47.128;8.746;2023-04-07T06:52:39;91300.31;;;9.24;39.18
46778;BME280;32536;47.128;8.746;2023-04-07T06:55:06;91302.59;;;9.25;38.89
46778;BME280;32536;47.128;8.746;2023-04-07T06:57:33;91298.75;;;9.26;39.02
46778;BME280;32536;47.128;8.746;2023-04-07T07:00:00;91302.59;;;9.25;39.20
46778;BME280;32536;47.128;8.746;2023-04-07T07:02:27;91300.72;;;9.22;39.14
46778;BME280;32536;47.128;8.746;2023-04-07T07:04:53;91292.28;;;9.24;38.92
46778;BME280;32536;47.128;8.746;2023-04-07T07:07:20;91294.13;;;9.31;39.06
46778;BME280;32536;47.128;8.746;2023-04-07T07:09:47;91289.88;;;9.33;39.17
46778;BME280;32536;47.128;8.746;2023-04-07T07:12:13;91286.00;;;9.38;39.11
46778;BME280;32536;47.128;8.746;2023-04-07T07:14:43;91295.13;;;9.40;39.43
46778;BME280;32536;47.128;8.746;2023-04-07T07:17:09;91294.28;;;9.43;39.38
46778;BME280;32536;47.128;8.746;2023-04-07T07:19:36;91297.69;;;9.48;39.21
46778;BME280;32536;47.128;8.746;2023-04-07T07:22:03;91289.97;;;9.53;39.26
46778;BME280;32536;47.128;8.746;2023-04-07T07:24:30;91292.88;;;9.63;38.90
46778;BME280;32536;47.128;8.746;2023-04-07T07:26:59;91291.97;;;9.73;38.83
46778;BME280;32536;47.128;8.746;2023-04-07T07:29:27;91296.78;;;9.82;39.21
46778;BME280;32536;47.128;8.746;2023-04-07T07:31:53;91297.00;;;9.91;39.23
46778;BME280;32536;47.128;8.746;2023-04-07T07:34:20;91293.38;;;10.01;38.85
46778;BME280;32536;47.128;8.746;2023-04-07T07:36:47;91296.69;;;10.09;39.04
46778;BME280;32536;47.128;8.746;2023-04-07T07:39:13;91293.88;;;10.16;39.32
46778;BME280;32536;47.128;8.746;2023-04-07T07:41:40;91293.09;;;10.19;38.97
46778;BME280;32536;47.128;8.746;2023-04-07T07:44:07;91299.53;;;10.22;38.89
46778;BME280;32536;47.128;8.746;2023-04-07T07:46:34;91289.44;;;10.30;38.58
46778;BME280;32536;47.128;8.746;2023-04-07T07:49:00;91292.41;;;10.35;39.02
46778;BME280;32536;47.128;8.746;2023-04-07T07:51:27;91289.69;;;10.39;39.01
46778;BME280;32536;47.128;8.746;2023-04-07T07:53:54;91291.91;;;10.44;38.79
46778;BME280;32536;47.128;8.746;2023-04-07T07:56:21;91291.41;;;10.49;38.62
46778;BME280;32536;47.128;8.746;2023-04-07T07:58:48;91292.44;;;10.55;38.31
46778;BME280;32536;47.128;8.746;2023-04-07T08:01:15;91295.34;;;10.65;38.99
46778;BME280;32536;47.128;8.746;2023-04-07T08:03:42;91305.91;;;10.72;38.54
46778;BME280;32536;47.128;8.746;2023-04-07T08:06:08;91297.75;;;10.79;38.64
46778;BME280;32536;47.128;8.746;2023-04-07T08:08:36;91293.41;;;10.85;38.44
46778;BME280;32536;47.128;8.746;2023-04-07T08:11:03;91300.19;;;10.90;38.57
46778;BME280;32536;47.128;8.746;2023-04-07T08:13:30;91304.28;;;10.95;38.82
46778;BME280;32536;47.128;8.746;2023-04-07T08:15:57;91303.91;;;10.96;38.26
46778;BME280;32536;47.128;8.746;2023-04-07T08:18:23;91314.19;;;10.98;38.05
46778;BME280;32536;47.128;8.746;2023-04-07T08:20:50;91310.75;;;10.97;38.57
46778;BME280;32536;47.128;8.746;2023-04-07T08:23:17;91314.56;;;11.00;38.47
46778;BME280;32536;47.128;8.746;2023-04-07T08:25:44;91322.84;;;11.05;38.42
46778;BME280;32536;47.128;8.746;2023-04-07T08:28:10;91319.28;;;11.12;38.78
46778;BME280;32536;47.128;8.746;2023-04-07T08:30:37;91319.53;;;11.18;38.06
46778;BME280;32536;47.128;8.746;2023-04-07T08:33:04;91325.59;;;11.22;38.13
46778;BME280;32536;47.128;8.746;2023-04-07T08:35:31;91331.63;;;11.26;38.29
46778;BME280;32536;47.128;8.746;2023-04-07T08:37:58;91331.97;;;11.28;37.99
46778;BME280;32536;47.128;8.746;2023-04-07T08:40:24;91331.53;;;11.30;38.07
46778;BME280;32536;47.128;8.746;2023-04-07T08:42:51;91332.03;;;11.25;38.51
46778;BME280;32536;47.128;8.746;2023-04-07T08:45:19;91338.63;;;11.20;38.47
46778;BME280;32536;47.128;8.746;2023-04-07T08:47:52;91344.06;;;11.16;38.39
46778;BME280;32536;47.128;8.746;2023-04-07T08:50:25;91345.25;;;11.15;37.97
46778;BME280;32536;47.128;8.746;2023-04-07T08:52:54;91351.84;;;11.11;38.59
46778;BME280;32536;47.128;8.746;2023-04-07T08:55:22;91353.31;;;10.95;38.91
46778;BME280;32536;47.128;8.746;2023-04-07T08:57:51;91360.84;;;10.60;39.71
46778;BME280;32536;47.128;8.746;2023-04-07T09:00:18;91359.22;;;10.19;40.68
46778;BME280;32536;47.128;8.746;2023-04-07T09:02:46;91359.81;;;9.83;41.16
46778;BME280;32536;47.128;8.746;2023-04-07T09:05:14;91365.13;;;9.59;41.02
46778;BME280;32536;47.128;8.746;2023-04-07T09:07:40;91376.94;;;9.34;41.99
46778;BME280;32536;47.128;8.746;2023-04-07T09:10:10;91373.31;;;9.17;41.97
46778;BME280;32536;47.128;8.746;2023-04-07T09:12:37;91380.38;;;9.04;42.23
46778;BME280;32536;47.128;8.746;2023-04-07T09:15:06;91374.75;;;8.94;42.62
46778;BME280;32536;47.128;8.746;2023-04-07T09:17:33;91378.31;;;8.84;42.68
46778;BME280;32536;47.128;8.746;2023-04-07T09:20:00;91379.88;;;8.81;42.42
46778;BME280;32536;47.128;8.746;2023-04-07T09:22:34;91365.16;;;8.66;47.07
46778;BME280;32536;47.128;8.746;2023-04-07T09:25:15;91376.31;;;8.57;48.19
46778;BME280;32536;47.128;8.746;2023-04-07T09:27:57;91378.72;;;8.41;48.38
46778;BME280;32536;47.128;8.746;2023-04-07T09:30:25;91383.81;;;8.28;43.96
46778;BME280;32536;47.128;8.746;2023-04-07T09:32:53;91383.56;;;8.11;45.05
46778;BME280;32536;47.128;8.746;2023-04-07T09:35:21;91382.06;;;8.07;44.66
46778;BME280;32536;47.128;8.746;2023-04-07T09:38:06;91376.06;;;7.95;50.30
46778;BME280;32536;47.128;8.746;2023-04-07T09:40:34;91381.84;;;7.90;46.23
46778;BME280;32536;47.128;8.746;2023-04-07T09:43:03;91388.34;;;7.85;47.85
46778;BME280;32536;47.128;8.746;2023-04-07T09:45:31;91391.81;;;7.82;46.94
46778;BME280;32536;47.128;8.746;2023-04-07T09:48:04;91389.53;;;7.77;47.14
46778;BME280;32536;47.128;8.746;2023-04-07T09:50:34;91384.25;;;7.70;49.33
46778;BME280;32536;47.128;8.746;2023-04-07T09:53:01;91384.66;;;7.68;47.38
46778;BME280;32536;47.128;8.746;2023-04-07T09:55:29;91386.94;;;7.66;48.21
46778;BME280;32536;47.128;8.746;2023-04-07T09:57:56;91398.00;;;7.68;48.07
46778;BME280;32536;47.128;8.746;2023-04-07T10:00:24;91394.91;;;7.70;48.02
46778;BME280;32536;47.128;8.746;2023-04-07T10:02:51;91383.47;;;7.73;47.40
46778;BME280;32536;47.128;8.746;2023-04-07T10:05:18;91383.84;;;7.79;47.20
46778;BME280;32536;47.128;8.746;2023-04-07T10:07:46;91386.44;;;7.86;46.65
46778;BME280;32536;47.128;8.746;2023-04-07T10:10:14;91390.19;;;7.96;46.03
46778;BME280;32536;47.128;8.746;2023-04-07T10:12:41;91386.28;;;8.04;46.92
46778;BME280;32536;47.128;8.746;2023-04-07T10:15:11;91381.25;;;8.13;49.12
46778;BME280;32536;47.128;8.746;2023-04-07T10:17:42;91383.91;;;8.17;52.93
46778;BME280;32536;47.128;8.746;2023-04-07T10:20:17;91383.47;;;8.22;47.45
46778;BME280;32536;47.128;8.746;2023-04-07T10:22:49;91385.66;;;8.31;47.11
46778;BME280;32536;47.128;8.746;2023-04-07T10:25:18;91387.16;;;8.36;47.49
46778;BME280;32536;47.128;8.746;2023-04-07T10:27:56;91382.53;;;8.40;52.14
46778;BME280;32536;47.128;8.746;2023-04-07T10:30:27;91388.19;;;8.49;47.40
46778;BME280;32536;47.128;8.746;2023-04-07T10:32:56;91390.41;;;8.58;46.06
46778;BME280;32536;47.128;8.746;2023-04-07T10:35:23;91391.06;;;8.69;45.64
46778;BME280;32536;47.128;8.746;2023-04-07T10:40:33;91386.56;;;8.93;46.06
46778;BME280;32536;47.128;8.746;2023-04-07T10:43:01;91389.53;;;9.03;45.81
46778;BME280;32536;47.128;8.746;2023-04-07T10:48:17;91393.50;;;9.22;44.90
46778;BME280;32536;47.128;8.746;2023-04-07T10:50:45;91392.66;;;9.28;45.19
46778;BME280;32536;47.128;8.746;2023-04-07T10:53:30;91398.31;;;9.34;44.52
46778;BME280;32536;47.128;8.746;2023-04-07T10:55:57;91398.22;;;9.41;44.30
46778;BME280;32536;47.128;8.746;2023-04-07T10:58:31;91402.00;;;9.44;44.98
46778;BME280;32536;47.128;8.746;2023-04-07T11:03:36;91394.25;;;9.53;44.96
46778;BME280;32536;47.128;8.746;2023-04-07T11:06:04;91404.94;;;9.53;45.09
46778;BME280;32536;47.128;8.746;2023-04-07T11:11:07;91400.53;;;9.39;46.19
46778;BME280;32536;47.128;8.746;2023-04-07T11:13:48;91408.66;;;9.32;51.72
46778;BME280;32536;47.128;8.746;2023-04-07T11:16:17;91414.81;;;9.29;46.57
46778;BME280;32536;47.128;8.746;2023-04-07T11:18:45;91412.91;;;9.26;46.69
46778;BME280;32536;47.128;8.746;2023-04-07T11:21:16;91421.03;;;9.19;48.95
46778;BME280;32536;47.128;8.746;2023-04-07T11:23:45;91425.72;;;9.11;47.79
46778;BME280;32536;47.128;8.746;2023-04-07T11:26:13;91430.81;;;8.98;47.89
46778;BME280;32536;47.128;8.746;2023-04-07T11:28:45;91437.06;;;8.84;50.91
46778;BME280;32536;47.128;8.746;2023-04-07T11:31:26;91443.63;;;8.76;49.53
46778;BME280;32536;47.128;8.746;2023-04-07T11:33:58;91451.03;;;8.61;51.08
46778;BME280;32536;47.128;8.746;2023-04-07T11:36:36;91457.72;;;8.31;54.96
46778;BME280;32536;47.128;8.746;2023-04-07T11:39:03;91463.28;;;8.06;50.18
46778;BME280;32536;47.128;8.746;2023-04-07T11:41:32;91462.22;;;7.92;49.67
46778;BME280;32536;47.128;8.746;2023-04-07T11:44:08;91459.63;;;7.81;50.22
46778;BME280;32536;47.128;8.746;2023-04-07T11:46:50;91469.56;;;7.74;49.36
46778;BME280;32536;47.128;8.746;2023-04-07T11:49:21;91478.34;;;7.74;49.07
46778;BME280;32536;47.128;8.746;2023-04-07T11:51:57;91475.25;;;7.79;50.10
46778;BME280;32536;47.128;8.746;2023-04-07T11:54:44;91478.63;;;7.87;50.68
46778;BME280;32536;47.128;8.746;2023-04-07T11:57:27;91479.34;;;7.95;51.57
46778;BME280;32536;47.128;8.746;2023-04-07T12:00:07;91485.44;;;7.95;50.26
46778;BME280;32536;47.128;8.746;2023-04-07T12:02:36;91483.88;;;7.98;47.50
46778;BME280;32536;47.128;8.746;2023-04-07T12:05:04;91488.78;;;8.07;46.38
46778;BME280;32536;47.128;8.746;2023-04-07T12:07:31;91479.56;;;8.18;46.48
46778;BME280;32536;47.128;8.746;2023-04-07T12:10:17;91489.00;;;8.30;47.55
46778;BME280;32536;47.128;8.746;2023-04-07T12:12:45;91479.81;;;8.39;47.20
46778;BME280;32536;47.128;8.746;2023-04-07T12:15:13;91476.00;;;8.36;46.82
46778;BME280;32536;47.128;8.746;2023-04-07T12:17:44;91484.03;;;8.32;48.70
46778;BME280;32536;47.128;8.746;2023-04-07T12:20:12;91473.44;;;8.22;54.74
46778;BME280;32536;47.128;8.746;2023-04-07T12:22:40;91479.16;;;8.20;47.35
46778;BME280;32536;47.128;8.746;2023-04-07T12:25:07;91473.81;;;8.20;48.71
46778;BME280;32536;47.128;8.746;2023-04-07T12:27:34;91476.47;;;8.24;47.87
46778;BME280;32536;47.128;8.746;2023-04-07T12:30:00;91474.56;;;8.24;47.97
46778;BME280;32536;47.128;8.746;2023-04-07T12:32:28;91482.53;;;8.31;47.86
46778;BME280;32536;47.128;8.746;2023-04-07T12:34:55;91484.38;;;8.38;48.06
46778;BME280;32536;47.128;8.746;2023-04-07T12:37:22;91482.81;;;8.41;48.73
46778;BME280;32536;47.128;8.746;2023-04-07T12:39:49;91480.53;;;8.39;48.80
46778;BME280;32536;47.128;8.746;2023-04-07T12:42:15;91486.59;;;8.43;47.52
46778;BME280;32536;47.128;8.746;2023-04-07T12:44:42;91481.66;;;8.42;48.65
46778;BME280;32536;47.128;8.746;2023-04-07T12:47:09;91478.22;;;8.45;48.58
46778;BME280;32536;47.128;8.746;2023-04-07T12:49:37;91474.78;;;8.48;48.03
46778;BME280;32536;47.128;8.746;2023-04-07T12:52:03;91473.59;;;8.53;48.51
46778;BME280;32536;47.128;8.746;2023-04-07T12:54:31;91478.16;;;8.56;48.50
46778;BME280;32536;47.128;8.746;2023-04-07T12:56:58;91477.75;;;8.57;48.69
46778;BME280;32536;47.128;8.746;2023-04-07T12:59:25;91473.53;;;8.60;48.44
46778;BME280;32536;47.128;8.746;2023-04-07T13:01:52;91476.97;;;8.60;48.83
46778;BME280;32536;47.128;8.746;2023-04-07T13:04:19;91476.59;;;8.62;48.03
46778;BME280;32536;47.128;8.746;2023-04-07T13:06:45;91477.66;;;8.68;48.56
46778;BME280;32536;47.128;8.746;2023-04-07T13:09:13;91478.75;;;8.74;48.60
46778;BME280;32536;47.128;8.746;2023-04-07T13:11:40;91474.16;;;8.75;48.35
46778;BME280;32536;47.128;8.746;2023-04-07T13:14:07;91470.72;;;8.78;47.82
46778;BME280;32536;47.128;8.746;2023-04-07T13:16:34;91476.41;;;8.80;48.17
46778;BME280;32536;47.128;8.746;2023-04-07T13:19:00;91475.59;;;8.87;47.96
46778;BME280;32536;47.128;8.746;2023-04-07T13:21:28;91475.50;;;8.94;47.71
46778;BME280;32536;47.128;8.746;2023-04-07T13:23:55;91475.88;;;8.96;48.60
46778;BME280;32536;47.128;8.746;2023-04-07T13:26:22;91476.97;;;9.02;48.41
46778;BME280;32536;47.128;8.746;2023-04-07T13:28:48;91479.94;;;9.08;47.93
46778;BME280;32536;47.128;8.746;2023-04-07T13:31:15;91478.38;;;9.10;48.17
46778;BME280;32536;47.128;8.746;2023-04-07T13:33:42;91471.19;;;9.07;48.42